sensor_id;sensor_type;location;lat;lon;timestamp;temperature;humidity
36444;DHT22;24692;45.642;13.806;2023-05-09T00:01:11;15.10;99.90
36444;DHT22;24692;45.642;13.806;2023-05-09T00:03:38;15.20;99.90
36444;DHT22;24692;45.642;13.806;2023-05-09T00:06:04;15.20;99.90
36444;DHT22;24692;45.642;13.806;2023-05-09T00:08:30;15.30;99.90
36444;DHT22;24692;45.642;13.806;2023-05-09T00:10:56;15.20;99.90
36444;DHT22;24692;45.642;13.806;2023-05-09T00:13:21;15.30;99.90
36444;DHT22;24692;45.642;13.806;2023-05-09T00:15:48;15.30;99.90
36444;DHT22;24692;45.642;13.806;2023-05-09T00:18:13;15.40;99.90
36444;DHT22;24692;45.642;13.806;2023-05-09T00:20:39;15.40;99.90
36444;DHT22;24692;45.642;13.806;2023-05-09T00:23:06;15.40;99.90
36444;DHT22;24692;45.642;13.806;2023-05-09T00:25:31;15.50;99.90
36444;DHT22;24692;45.642;13.806;2023-05-09T00:27:57;15.50;99.90
36444;DHT22;24692;45.642;13.806;2023-05-09T00:30:23;15.50;99.90
36444;DHT22;24692;45.642;13.806;2023-05-09T00:32:49;15.60;99.90
36444;DHT22;24692;45.642;13.806;2023-05-09T00:35:14;15.50;99.90
36444;DHT22;24692;45.642;13.806;2023-05-09T00:37:40;15.60;99.90
36444;DHT22;24692;45.642;13.806;2023-05-09T00:40:06;15.60;99.90
36444;DHT22;24692;45.642;13.806;2023-05-09T00:42:34;15.60;99.90
36444;DHT22;24692;45.642;13.806;2023-05-09T00:45:00;15.50;99.90
36444;DHT22;24692;45.642;13.806;2023-05-09T00:47:27;15.50;99.90
36444;DHT22;24692;45.642;13.806;2023-05-09T00:49:53;15.50;99.90
36444;DHT22;24692;45.642;13.806;2023-05-09T00:52:21;15.50;99.90
36444;DHT22;24692;45.642;13.806;2023-05-09T00:54:51;15.60;99.90
36444;DHT22;24692;45.642;13.806;2023-05-09T00:57:16;15.60;99.90
36444;DHT22;24692;45.642;13.806;2023-05-09T00:59:42;15.50;99.90
36444;DHT22;24692;45.642;13.806;2023-05-09T01:02:08;15.50;99.90
36444;DHT22;24692;45.642;13.806;2023-05-09T01:04:33;15.50;99.90
36444;DHT22;24692;45.642;13.806;2023-05-09T01:07:01;15.50;99.90
36444;DHT22;24692;45.642;13.806;2023-05-09T01:09:34;15.50;99.90
36444;DHT22;24692;45.642;13.806;2023-05-09T01:15:24;15.60;99.90
36444;DHT22;24692;45.642;13.806;2023-05-09T01:26:04;15.60;99.90
36444;DHT22;24692;45.642;13.806;2023-05-09T01:28:52;15.50;99.90
36444;DHT22;24692;45.642;13.806;2023-05-09T01:31:26;15.50;99.90
36444;DHT22;24692;45.642;13.806;2023-05-09T01:33:55;15.50;99.90
36444;DHT22;24692;45.642;13.806;2023-05-09T01:36:23;15.50;99.90
36444;DHT22;24692;45.642;13.806;2023-05-09T01:38:51;15.50;99.90
36444;DHT22;24692;45.642;13.806;2023-05-09T01:41:18;15.50;99.90
36444;DHT22;24692;45.642;13.806;2023-05-09T01:43:48;15.50;99.90
36444;DHT22;24692;45.642;13.806;2023-05-09T01:46:16;15.40;99.90
36444;DHT22;24692;45.642;13.806;2023-05-09T01:48:44;15.50;99.90
36444;DHT22;24692;45.642;13.806;2023-05-09T01:51:10;15.40;99.90
36444;DHT22;24692;45.642;13.806;2023-05-09T01:53:37;15.30;99.90
36444;DHT22;24692;45.642;13.806;2023-05-09T01:56:05;15.40;99.90
36444;DHT22;24692;45.642;13.806;2023-05-09T01:58:32;15.40;99.90
36444;DHT22;24692;45.642;13.806;2023-05-09T02:00:59;15.40;99.90
36444;DHT22;24692;45.642;13.806;2023-05-09T02:03:26;15.40;99.90
36444;DHT22;24692;45.642;13.806;2023-05-09T02:05:52;15.40;99.90
36444;DHT22;24692;45.642;13.806;2023-05-09T02:08:20;15.40;99.90
36444;DHT22;24692;45.642;13.806;2023-05-09T02:10:48;15.30;99.90
36444;DHT22;24692;45.642;13.806;2023-05-09T02:13:14;15.30;99.90
36444;DHT22;24692;45.642;13.806;2023-05-09T02:15:40;15.20;99.90
36444;DHT22;24692;45.642;13.806;2023-05-09T02:18:06;15.20;99.90
36444;DHT22;24692;45.642;13.806;2023-05-09T02:20:32;15.20;99.90
36444;DHT22;24692;45.642;13.806;2023-05-09T02:23:00;15.10;99.90
36444;DHT22;24692;45.642;13.806;2023-05-09T02:25:26;15.10;99.90
36444;DHT22;24692;45.642;13.806;2023-05-09T02:27:52;15.00;99.90
36444;DHT22;24692;45.642;13.806;2023-05-09T02:30:22;15.10;99.90
36444;DHT22;24692;45.642;13.806;2023-05-09T02:32:52;15.10;99.90
36444;DHT22;24692;45.642;13.806;2023-05-09T02:35:21;15.00;99.90
36444;DHT22;24692;45.642;13.806;2023-05-09T02:37:47;15.00;99.90
36444;DHT22;24692;45.642;13.806;2023-05-09T02:40:13;15.00;99.90
36444;DHT22;24692;45.642;13.806;2023-05-09T02:42:39;15.00;99.90
36444;DHT22;24692;45.642;13.806;2023-05-09T02:45:06;15.00;99.90
36444;DHT22;24692;45.642;13.806;2023-05-09T02:47:32;14.90;99.90
36444;DHT22;24692;45.642;13.806;2023-05-09T02:49:57;15.00;99.90
36444;DHT22;24692;45.642;13.806;2023-05-09T02:52:23;14.90;99.90
36444;DHT22;24692;45.642;13.806;2023-05-09T02:54:49;14.90;99.90
36444;DHT22;24692;45.642;13.806;2023-05-09T02:57:15;14.90;99.90
36444;DHT22;24692;45.642;13.806;2023-05-09T02:59:40;14.90;99.90
36444;DHT22;24692;45.642;13.806;2023-05-09T03:02:06;14.80;99.90
36444;DHT22;24692;45.642;13.806;2023-05-09T03:04:32;14.80;99.90
36444;DHT22;24692;45.642;13.806;2023-05-09T03:06:58;14.80;99.90
36444;DHT22;24692;45.642;13.806;2023-05-09T03:09:23;14.80;99.90
36444;DHT22;24692;45.642;13.806;2023-05-09T03:11:49;14.80;99.90
36444;DHT22;24692;45.642;13.806;2023-05-09T03:14:15;14.80;99.90
36444;DHT22;24692;45.642;13.806;2023-05-09T03:16:40;14.90;99.90
36444;DHT22;24692;45.642;13.806;2023-05-09T03:19:06;14.90;99.90
36444;DHT22;24692;45.642;13.806;2023-05-09T03:21:31;14.90;99.90
36444;DHT22;24692;45.642;13.806;2023-05-09T03:23:57;15.00;99.90
36444;DHT22;24692;45.642;13.806;2023-05-09T03:26:23;15.00;99.90
36444;DHT22;24692;45.642;13.806;2023-05-09T03:28:48;15.10;99.90
36444;DHT22;24692;45.642;13.806;2023-05-09T03:31:15;15.20;99.90
36444;DHT22;24692;45.642;13.806;2023-05-09T03:33:40;15.20;99.90
36444;DHT22;24692;45.642;13.806;2023-05-09T03:36:06;15.20;99.90
36444;DHT22;24692;45.642;13.806;2023-05-09T03:38:32;15.30;99.90
36444;DHT22;24692;45.642;13.806;2023-05-09T03:40:57;15.30;99.90
36444;DHT22;24692;45.642;13.806;2023-05-09T03:43:23;15.30;99.90
36444;DHT22;24692;45.642;13.806;2023-05-09T03:45:49;15.30;99.90
36444;DHT22;24692;45.642;13.806;2023-05-09T03:48:14;15.20;99.90
36444;DHT22;24692;45.642;13.806;2023-05-09T03:50:41;15.20;99.90
36444;DHT22;24692;45.642;13.806;2023-05-09T03:53:06;15.30;99.90
36444;DHT22;24692;45.642;13.806;2023-05-09T03:55:32;15.30;99.90
36444;DHT22;24692;45.642;13.806;2023-05-09T03:57:57;15.30;99.90
36444;DHT22;24692;45.642;13.806;2023-05-09T04:00:23;15.30;99.90
36444;DHT22;24692;45.642;13.806;2023-05-09T04:02:51;15.30;99.90
36444;DHT22;24692;45.642;13.806;2023-05-09T04:05:17;15.30;99.90
36444;DHT22;24692;45.642;13.806;2023-05-09T04:07:43;15.30;99.90
36444;DHT22;24692;45.642;13.806;2023-05-09T04:10:09;15.40;99.90
36444;DHT22;24692;45.642;13.806;2023-05-09T04:12:35;15.40;99.90
36444;DHT22;24692;45.642;13.806;2023-05-09T04:15:00;15.40;99.90
36444;DHT22;24692;45.642;13.806;2023-05-09T04:17:26;15.40;99.90
36444;DHT22;24692;45.642;13.806;2023-05-09T04:19:51;15.40;99.90
36444;DHT22;24692;45.642;13.806;2023-05-09T04:22:17;15.40;99.90
36444;DHT22;24692;45.642;13.806;2023-05-09T04:24:43;15.40;99.90
36444;DHT22;24692;45.642;13.806;2023-05-09T04:27:08;15.40;99.90
36444;DHT22;24692;45.642;13.806;2023-05-09T04:29:34;15.50;99.90
36444;DHT22;24692;45.642;13.806;2023-05-09T04:32:01;15.40;99.90
36444;DHT22;24692;45.642;13.806;2023-05-09T04:34:27;15.40;99.90
36444;DHT22;24692;45.642;13.806;2023-05-09T04:36:53;15.50;99.90
36444;DHT22;24692;45.642;13.806;2023-05-09T04:39:19;15.40;99.90
36444;DHT22;24692;45.642;13.806;2023-05-09T04:41:45;15.50;99.90
36444;DHT22;24692;45.642;13.806;2023-05-09T04:44:12;15.50;99.90
36444;DHT22;24692;45.642;13.806;2023-05-09T04:46:39;15.50;99.90
36444;DHT22;24692;45.642;13.806;2023-05-09T04:49:04;15.60;99.90
36444;DHT22;24692;45.642;13.806;2023-05-09T04:51:30;15.60;99.90
36444;DHT22;24692;45.642;13.806;2023-05-09T04:53:56;15.50;99.90
36444;DHT22;24692;45.642;13.806;2023-05-09T04:56:22;15.50;99.90
36444;DHT22;24692;45.642;13.806;2023-05-09T04:58:48;15.50;99.90
36444;DHT22;24692;45.642;13.806;2023-05-09T05:01:13;15.60;99.90
36444;DHT22;24692;45.642;13.806;2023-05-09T05:03:40;15.70;99.90
36444;DHT22;24692;45.642;13.806;2023-05-09T05:06:05;15.60;99.90
36444;DHT22;24692;45.642;13.806;2023-05-09T05:08:31;15.60;99.90
36444;DHT22;24692;45.642;13.806;2023-05-09T05:10:57;15.60;99.90
36444;DHT22;24692;45.642;13.806;2023-05-09T05:13:22;15.60;99.90
36444;DHT22;24692;45.642;13.806;2023-05-09T05:15:48;15.50;99.90
36444;DHT22;24692;45.642;13.806;2023-05-09T05:18:14;15.60;99.90
36444;DHT22;24692;45.642;13.806;2023-05-09T05:20:40;15.60;99.90
36444;DHT22;24692;45.642;13.806;2023-05-09T05:23:07;15.70;99.90
36444;DHT22;24692;45.642;13.806;2023-05-09T05:25:33;15.70;99.90
36444;DHT22;24692;45.642;13.806;2023-05-09T05:27:59;15.70;99.90
36444;DHT22;24692;45.642;13.806;2023-05-09T05:30:24;15.80;99.90
36444;DHT22;24692;45.642;13.806;2023-05-09T05:32:50;15.80;99.90
36444;DHT22;24692;45.642;13.806;2023-05-09T05:35:16;15.90;99.90
36444;DHT22;24692;45.642;13.806;2023-05-09T05:37:42;15.90;99.90
36444;DHT22;24692;45.642;13.806;2023-05-09T05:40:09;15.90;99.90
36444;DHT22;24692;45.642;13.806;2023-05-09T05:42:34;15.90;99.90
36444;DHT22;24692;45.642;13.806;2023-05-09T05:45:00;16.00;99.90
36444;DHT22;24692;45.642;13.806;2023-05-09T05:47:35;16.10;99.90
36444;DHT22;24692;45.642;13.806;2023-05-09T05:50:03;16.40;99.90
36444;DHT22;24692;45.642;13.806;2023-05-09T05:52:30;16.60;99.90
36444;DHT22;24692;45.642;13.806;2023-05-09T05:54:56;16.80;99.90
36444;DHT22;24692;45.642;13.806;2023-05-09T05:57:21;16.80;99.90
36444;DHT22;24692;45.642;13.806;2023-05-09T05:59:48;16.90;99.90
36444;DHT22;24692;45.642;13.806;2023-05-09T06:02:17;16.70;99.90
36444;DHT22;24692;45.642;13.806;2023-05-09T06:04:43;16.90;99.90
36444;DHT22;24692;45.642;13.806;2023-05-09T06:07:09;17.00;99.90
36444;DHT22;24692;45.642;13.806;2023-05-09T06:09:35;17.00;99.90
36444;DHT22;24692;45.642;13.806;2023-05-09T06:12:01;17.20;99.90
36444;DHT22;24692;45.642;13.806;2023-05-09T06:14:27;17.40;99.90
36444;DHT22;24692;45.642;13.806;2023-05-09T06:16:52;17.30;99.90
36444;DHT22;24692;45.642;13.806;2023-05-09T06:19:18;17.20;99.90
36444;DHT22;24692;45.642;13.806;2023-05-09T06:21:44;17.10;99.90
36444;DHT22;24692;45.642;13.806;2023-05-09T06:24:10;17.20;99.90
36444;DHT22;24692;45.642;13.806;2023-05-09T06:26:37;17.40;99.90
36444;DHT22;24692;45.642;13.806;2023-05-09T06:29:03;17.20;99.90
36444;DHT22;24692;45.642;13.806;2023-05-09T06:31:33;17.20;99.90
36444;DHT22;24692;45.642;13.806;2023-05-09T06:34:06;17.30;99.90
36444;DHT22;24692;45.642;13.806;2023-05-09T06:36:32;17.40;99.90
36444;DHT22;24692;45.642;13.806;2023-05-09T06:38:58;17.70;99.90
36444;DHT22;24692;45.642;13.806;2023-05-09T06:41:24;17.70;99.90
36444;DHT22;24692;45.642;13.806;2023-05-09T06:43:50;17.70;99.90
36444;DHT22;24692;45.642;13.806;2023-05-09T06:46:16;17.70;99.90
36444;DHT22;24692;45.642;13.806;2023-05-09T06:48:42;17.80;99.90
36444;DHT22;24692;45.642;13.806;2023-05-09T06:51:07;17.80;99.90
36444;DHT22;24692;45.642;13.806;2023-05-09T06:53:33;17.90;99.90
36444;DHT22;24692;45.642;13.806;2023-05-09T06:55:59;17.90;99.90
36444;DHT22;24692;45.642;13.806;2023-05-09T06:58:25;17.80;99.90
36444;DHT22;24692;45.642;13.806;2023-05-09T07:00:53;17.40;99.90
36444;DHT22;24692;45.642;13.806;2023-05-09T07:03:18;17.30;99.90
36444;DHT22;24692;45.642;13.806;2023-05-09T07:05:44;17.40;99.90
36444;DHT22;24692;45.642;13.806;2023-05-09T07:08:10;17.40;99.90
36444;DHT22;24692;45.642;13.806;2023-05-09T07:10:35;17.40;99.90
36444;DHT22;24692;45.642;13.806;2023-05-09T07:13:02;17.60;99.90
36444;DHT22;24692;45.642;13.806;2023-05-09T07:15:28;17.60;99.90
36444;DHT22;24692;45.642;13.806;2023-05-09T07:17:53;17.70;99.90
36444;DHT22;24692;45.642;13.806;2023-05-09T07:20:19;17.50;99.90
36444;DHT22;24692;45.642;13.806;2023-05-09T07:22:45;17.50;99.90
36444;DHT22;24692;45.642;13.806;2023-05-09T07:25:11;17.80;99.90
36444;DHT22;24692;45.642;13.806;2023-05-09T07:27:36;18.00;99.90
36444;DHT22;24692;45.642;13.806;2023-05-09T07:30:05;18.20;99.90
36444;DHT22;24692;45.642;13.806;2023-05-09T07:32:32;18.60;99.90
36444;DHT22;24692;45.642;13.806;2023-05-09T07:34:57;18.80;99.90
36444;DHT22;24692;45.642;13.806;2023-05-09T07:37:23;19.10;99.90
36444;DHT22;24692;45.642;13.806;2023-05-09T07:39:50;19.20;99.90
36444;DHT22;24692;45.642;13.806;2023-05-09T07:42:16;19.10;99.90
36444;DHT22;24692;45.642;13.806;2023-05-09T07:44:42;19.10;99.90
36444;DHT22;24692;45.642;13.806;2023-05-09T07:47:08;19.10;99.90
36444;DHT22;24692;45.642;13.806;2023-05-09T07:49:34;19.10;99.90
36444;DHT22;24692;45.642;13.806;2023-05-09T07:52:00;19.50;99.90
36444;DHT22;24692;45.642;13.806;2023-05-09T07:54:26;19.20;99.90
36444;DHT22;24692;45.642;13.806;2023-05-09T07:56:53;19.00;99.90
36444;DHT22;24692;45.642;13.806;2023-05-09T07:59:19;18.90;99.90
36444;DHT22;24692;45.642;13.806;2023-05-09T08:01:45;19.00;99.90
36444;DHT22;24692;45.642;13.806;2023-05-09T08:04:10;18.90;99.90
36444;DHT22;24692;45.642;13.806;2023-05-09T08:06:36;18.80;99.90
36444;DHT22;24692;45.642;13.806;2023-05-09T08:09:02;18.70;99.90
36444;DHT22;24692;45.642;13.806;2023-05-09T08:11:27;18.70;99.90
36444;DHT22;24692;45.642;13.806;2023-05-09T08:13:53;18.80;99.90
36444;DHT22;24692;45.642;13.806;2023-05-09T08:16:19;18.80;99.90
36444;DHT22;24692;45.642;13.806;2023-05-09T08:18:45;19.10;99.90
36444;DHT22;24692;45.642;13.806;2023-05-09T08:21:10;19.30;99.90
36444;DHT22;24692;45.642;13.806;2023-05-09T08:23:36;19.20;99.90
36444;DHT22;24692;45.642;13.806;2023-05-09T08:26:02;18.90;99.90
36444;DHT22;24692;45.642;13.806;2023-05-09T08:28:28;19.40;99.90
36444;DHT22;24692;45.642;13.806;2023-05-09T08:30:54;19.70;99.90
36444;DHT22;24692;45.642;13.806;2023-05-09T08:33:21;19.70;99.90
36444;DHT22;24692;45.642;13.806;2023-05-09T08:35:53;20.00;99.90
36444;DHT22;24692;45.642;13.806;2023-05-09T08:38:19;20.10;99.90
36444;DHT22;24692;45.642;13.806;2023-05-09T08:40:45;19.90;99.90
36444;DHT22;24692;45.642;13.806;2023-05-09T08:43:11;19.80;99.90
36444;DHT22;24692;45.642;13.806;2023-05-09T08:45:44;20.00;99.90
36444;DHT22;24692;45.642;13.806;2023-05-09T08:48:14;20.00;99.90
36444;DHT22;24692;45.642;13.806;2023-05-09T08:50:40;20.10;99.90
36444;DHT22;24692;45.642;13.806;2023-05-09T08:53:07;20.30;99.90
36444;DHT22;24692;45.642;13.806;2023-05-09T08:55:32;21.00;99.90
36444;DHT22;24692;45.642;13.806;2023-05-09T08:57:58;21.70;99.90
36444;DHT22;24692;45.642;13.806;2023-05-09T09:00:25;22.00;99.90
36444;DHT22;24692;45.642;13.806;2023-05-09T09:02:52;22.00;99.90
36444;DHT22;24692;45.642;13.806;2023-05-09T09:05:18;21.70;99.90
36444;DHT22;24692;45.642;13.806;2023-05-09T09:07:45;21.60;99.90
36444;DHT22;24692;45.642;13.806;2023-05-09T09:10:11;21.50;99.90
36444;DHT22;24692;45.642;13.806;2023-05-09T09:12:39;21.30;99.90
36444;DHT22;24692;45.642;13.806;2023-05-09T09:15:06;21.60;99.90
36444;DHT22;24692;45.642;13.806;2023-05-09T09:17:36;21.30;99.90
36444;DHT22;24692;45.642;13.806;2023-05-09T09:20:06;21.50;99.90
36444;DHT22;24692;45.642;13.806;2023-05-09T09:22:34;21.90;99.90
36444;DHT22;24692;45.642;13.806;2023-05-09T09:25:00;22.10;99.90
36444;DHT22;24692;45.642;13.806;2023-05-09T09:27:27;21.80;99.90
36444;DHT22;24692;45.642;13.806;2023-05-09T09:29:53;21.40;99.90
36444;DHT22;24692;45.642;13.806;2023-05-09T09:32:18;21.60;99.90
36444;DHT22;24692;45.642;13.806;2023-05-09T09:34:48;21.90;99.90
36444;DHT22;24692;45.642;13.806;2023-05-09T09:37:23;21.90;99.90
36444;DHT22;24692;45.642;13.806;2023-05-09T09:39:55;22.00;99.90
36444;DHT22;24692;45.642;13.806;2023-05-09T09:42:21;22.50;99.90
36444;DHT22;24692;45.642;13.806;2023-05-09T09:45:11;23.10;99.90
36444;DHT22;24692;45.642;13.806;2023-05-09T09:47:37;23.20;99.90
36444;DHT22;24692;45.642;13.806;2023-05-09T09:50:14;23.20;99.90
36444;DHT22;24692;45.642;13.806;2023-05-09T09:52:51;23.30;99.90
36444;DHT22;24692;45.642;13.806;2023-05-09T09:55:18;22.90;99.90
36444;DHT22;24692;45.642;13.806;2023-05-09T09:57:44;22.60;99.90
36444;DHT22;24692;45.642;13.806;2023-05-09T10:00:11;22.80;99.90
36444;DHT22;24692;45.642;13.806;2023-05-09T10:02:47;22.70;99.90
36444;DHT22;24692;45.642;13.806;2023-05-09T10:05:24;23.50;99.90
36444;DHT22;24692;45.642;13.806;2023-05-09T10:07:56;25.00;99.90
36444;DHT22;24692;45.642;13.806;2023-05-09T10:10:26;25.40;99.90
36444;DHT22;24692;45.642;13.806;2023-05-09T10:12:56;25.60;99.90
36444;DHT22;24692;45.642;13.806;2023-05-09T10:15:23;26.60;99.90
36444;DHT22;24692;45.642;13.806;2023-05-09T10:17:57;27.10;99.90
36444;DHT22;24692;45.642;13.806;2023-05-09T10:20:23;27.30;99.90
36444;DHT22;24692;45.642;13.806;2023-05-09T10:23:10;27.70;99.90
36444;DHT22;24692;45.642;13.806;2023-05-09T10:25:46;27.80;99.90
36444;DHT22;24692;45.642;13.806;2023-05-09T10:28:14;27.30;99.90
36444;DHT22;24692;45.642;13.806;2023-05-09T10:31:03;26.40;99.90
36444;DHT22;24692;45.642;13.806;2023-05-09T10:33:37;26.10;99.90
36444;DHT22;24692;45.642;13.806;2023-05-09T10:36:05;25.10;99.90
36444;DHT22;24692;45.642;13.806;2023-05-09T10:38:32;24.70;99.90
36444;DHT22;24692;45.642;13.806;2023-05-09T10:40:58;25.40;99.90
36444;DHT22;24692;45.642;13.806;2023-05-09T10:43:25;26.10;99.90
36444;DHT22;24692;45.642;13.806;2023-05-09T10:45:51;26.50;99.90
36444;DHT22;24692;45.642;13.806;2023-05-09T10:48:18;26.00;99.90
36444;DHT22;24692;45.642;13.806;2023-05-09T10:50:44;25.50;99.90
36444;DHT22;24692;45.642;13.806;2023-05-09T10:53:11;25.60;99.90
36444;DHT22;24692;45.642;13.806;2023-05-09T10:58:26;25.50;99.90
36444;DHT22;24692;45.642;13.806;2023-05-09T11:00:55;25.10;99.90
36444;DHT22;24692;45.642;13.806;2023-05-09T11:03:21;26.30;99.90
36444;DHT22;24692;45.642;13.806;2023-05-09T11:05:52;26.60;99.90
36444;DHT22;24692;45.642;13.806;2023-05-09T11:08:28;26.20;99.90
36444;DHT22;24692;45.642;13.806;2023-05-09T11:10:57;25.90;99.90
36444;DHT22;24692;45.642;13.806;2023-05-09T11:13:30;25.20;99.90
36444;DHT22;24692;45.642;13.806;2023-05-09T11:18:24;24.80;99.90
36444;DHT22;24692;45.642;13.806;2023-05-09T11:20:49;25.10;99.90
36444;DHT22;24692;45.642;13.806;2023-05-09T11:23:19;25.50;99.90
36444;DHT22;24692;45.642;13.806;2023-05-09T11:25:46;26.40;99.90
36444;DHT22;24692;45.642;13.806;2023-05-09T11:28:29;26.60;99.90
36444;DHT22;24692;45.642;13.806;2023-05-09T11:31:14;26.30;99.90
36444;DHT22;24692;45.642;13.806;2023-05-09T11:33:42;25.60;99.90
36444;DHT22;24692;45.642;13.806;2023-05-09T11:38:47;25.80;99.90
36444;DHT22;24692;45.642;13.806;2023-05-09T11:41:13;26.00;99.90
36444;DHT22;24692;45.642;13.806;2023-05-09T11:43:41;25.80;99.90
36444;DHT22;24692;45.642;13.806;2023-05-09T11:46:07;25.90;99.90
36444;DHT22;24692;45.642;13.806;2023-05-09T11:48:39;26.10;99.90
36444;DHT22;24692;45.642;13.806;2023-05-09T11:51:06;27.00;99.90
36444;DHT22;24692;45.642;13.806;2023-05-09T11:53:32;27.80;99.90
36444;DHT22;24692;45.642;13.806;2023-05-09T11:56:01;27.70;99.90
36444;DHT22;24692;45.642;13.806;2023-05-09T11:58:28;27.20;99.90
36444;DHT22;24692;45.642;13.806;2023-05-09T12:00:54;27.30;99.90
36444;DHT22;24692;45.642;13.806;2023-05-09T12:03:19;28.20;99.90
36444;DHT22;24692;45.642;13.806;2023-05-09T12:05:47;28.50;99.90
36444;DHT22;24692;45.642;13.806;2023-05-09T12:08:12;28.10;99.90
36444;DHT22;24692;45.642;13.806;2023-05-09T12:10:39;27.10;99.90
36444;DHT22;24692;45.642;13.806;2023-05-09T12:13:05;26.90;99.90
36444;DHT22;24692;45.642;13.806;2023-05-09T12:15:37;26.90;99.90
36444;DHT22;24692;45.642;13.806;2023-05-09T12:18:06;26.00;99.90
36444;DHT22;24692;45.642;13.806;2023-05-09T12:20:47;26.60;99.90
36444;DHT22;24692;45.642;13.806;2023-05-09T12:23:13;27.30;99.90
36444;DHT22;24692;45.642;13.806;2023-05-09T12:28:12;28.20;99.90
36444;DHT22;24692;45.642;13.806;2023-05-09T12:30:39;28.90;99.90
36444;DHT22;24692;45.642;13.806;2023-05-09T12:33:05;29.10;99.90
36444;DHT22;24692;45.642;13.806;2023-05-09T12:35:32;28.90;99.90
36444;DHT22;24692;45.642;13.806;2023-05-09T12:37:59;29.00;99.90
36444;DHT22;24692;45.642;13.806;2023-05-09T12:40:26;28.30;99.90
36444;DHT22;24692;45.642;13.806;2023-05-09T12:42:52;28.40;99.90
36444;DHT22;24692;45.642;13.806;2023-05-09T12:45:24;28.10;99.90
36444;DHT22;24692;45.642;13.806;2023-05-09T12:47:51;28.90;99.90
36444;DHT22;24692;45.642;13.806;2023-05-09T12:50:17;28.70;99.90
36444;DHT22;24692;45.642;13.806;2023-05-09T12:52:49;28.80;99.90
36444;DHT22;24692;45.642;13.806;2023-05-09T12:55:17;28.50;99.90
36444;DHT22;24692;45.642;13.806;2023-05-09T12:57:59;28.50;99.90
36444;DHT22;24692;45.642;13.806;2023-05-09T13:00:25;28.60;99.30
36444;DHT22;24692;45.642;13.806;2023-05-09T13:02:51;28.90;99.90
36444;DHT22;24692;45.642;13.806;2023-05-09T13:05:21;29.60;99.20
36444;DHT22;24692;45.642;13.806;2023-05-09T13:07:54;29.30;97.30
36444;DHT22;24692;45.642;13.806;2023-05-09T13:10:26;28.70;97.10
36444;DHT22;24692;45.642;13.806;2023-05-09T13:12:53;28.50;98.40
36444;DHT22;24692;45.642;13.806;2023-05-09T13:15:20;28.80;99.90
36444;DHT22;24692;45.642;13.806;2023-05-09T13:17:48;29.00;96.10
36444;DHT22;24692;45.642;13.806;2023-05-09T13:20:13;28.40;99.60
36444;DHT22;24692;45.642;13.806;2023-05-09T13:22:39;28.40;97.80
36444;DHT22;24692;45.642;13.806;2023-05-09T13:25:05;28.30;97.00
36444;DHT22;24692;45.642;13.806;2023-05-09T13:27:32;28.70;98.40
36444;DHT22;24692;45.642;13.806;2023-05-09T13:29:58;28.40;98.10
36444;DHT22;24692;45.642;13.806;2023-05-09T13:32:24;28.20;98.50
36444;DHT22;24692;45.642;13.806;2023-05-09T13:34:50;29.00;97.90
36444;DHT22;24692;45.642;13.806;2023-05-09T13:37:16;29.30;98.00
36444;DHT22;24692;45.642;13.806;2023-05-09T13:39:41;29.80;97.00
36444;DHT22;24692;45.642;13.806;2023-05-09T13:42:07;29.90;96.20
36444;DHT22;24692;45.642;13.806;2023-05-09T13:44:33;29.60;95.10
36444;DHT22;24692;45.642;13.806;2023-05-09T13:46:58;29.50;95.90
36444;DHT22;24692;45.642;13.806;2023-05-09T13:49:25;29.60;96.10
36444;DHT22;24692;45.642;13.806;2023-05-09T13:51:53;29.90;96.60
36444;DHT22;24692;45.642;13.806;2023-05-09T13:54:18;29.80;96.00
36444;DHT22;24692;45.642;13.806;2023-05-09T13:56:45;29.80;95.30
36444;DHT22;24692;45.642;13.806;2023-05-09T13:59:11;29.50;95.90
36444;DHT22;24692;45.642;13.806;2023-05-09T14:01:37;29.20;95.80
36444;DHT22;24692;45.642;13.806;2023-05-09T14:04:03;29.80;96.00
36444;DHT22;24692;45.642;13.806;2023-05-09T14:06:28;30.50;95.40
36444;DHT22;24692;45.642;13.806;2023-05-09T14:08:57;30.40;93.40
36444;DHT22;24692;45.642;13.806;2023-05-09T14:11:23;30.30;95.20
36444;DHT22;24692;45.642;13.806;2023-05-09T14:13:50;29.80;95.40
36444;DHT22;24692;45.642;13.806;2023-05-09T14:16:20;29.70;94.50
36444;DHT22;24692;45.642;13.806;2023-05-09T14:18:46;29.50;95.30
36444;DHT22;24692;45.642;13.806;2023-05-09T14:21:12;29.60;95.10
36444;DHT22;24692;45.642;13.806;2023-05-09T14:23:38;29.80;94.00
36444;DHT22;24692;45.642;13.806;2023-05-09T14:26:04;29.30;93.10
36444;DHT22;24692;45.642;13.806;2023-05-09T14:28:30;28.20;93.80
36444;DHT22;24692;45.642;13.806;2023-05-09T14:30:55;28.10;96.40
36444;DHT22;24692;45.642;13.806;2023-05-09T14:33:22;28.10;95.20
36444;DHT22;24692;45.642;13.806;2023-05-09T14:35:48;28.50;95.80
36444;DHT22;24692;45.642;13.806;2023-05-09T14:38:14;28.90;96.00
36444;DHT22;24692;45.642;13.806;2023-05-09T14:40:40;29.20;95.80
36444;DHT22;24692;45.642;13.806;2023-05-09T14:43:05;28.80;95.40
36444;DHT22;24692;45.642;13.806;2023-05-09T14:45:32;27.70;94.40
36444;DHT22;24692;45.642;13.806;2023-05-09T14:47:58;27.10;96.70
36444;DHT22;24692;45.642;13.806;2023-05-09T14:50:24;27.40;96.40
36444;DHT22;24692;45.642;13.806;2023-05-09T14:52:50;27.30;97.00
36444;DHT22;24692;45.642;13.806;2023-05-09T14:55:17;26.80;96.80
36444;DHT22;24692;45.642;13.806;2023-05-09T14:57:43;26.60;97.40
36444;DHT22;24692;45.642;13.806;2023-05-09T15:00:09;26.80;97.50
36444;DHT22;24692;45.642;13.806;2023-05-09T15:02:35;27.10;97.10
36444;DHT22;24692;45.642;13.806;2023-05-09T15:05:01;27.30;97.30
36444;DHT22;24692;45.642;13.806;2023-05-09T15:07:28;26.50;96.10
36444;DHT22;24692;45.642;13.806;2023-05-09T15:09:53;25.60;97.10
36444;DHT22;24692;45.642;13.806;2023-05-09T15:12:19;25.40;97.80
36444;DHT22;24692;45.642;13.806;2023-05-09T15:14:45;25.70;98.10
36444;DHT22;24692;45.642;13.806;2023-05-09T15:17:10;26.20;98.30
36444;DHT22;24692;45.642;13.806;2023-05-09T15:19:36;26.40;97.00
36444;DHT22;24692;45.642;13.806;2023-05-09T15:22:02;26.50;97.90
36444;DHT22;24692;45.642;13.806;2023-05-09T15:24:33;26.90;97.10
36444;DHT22;24692;45.642;13.806;2023-05-09T15:26:59;26.20;98.10
36444;DHT22;24692;45.642;13.806;2023-05-09T15:29:24;25.90;98.00
36444;DHT22;24692;45.642;13.806;2023-05-09T15:31:50;25.90;97.90
36444;DHT22;24692;45.642;13.806;2023-05-09T15:34:16;26.60;98.10
36444;DHT22;24692;45.642;13.806;2023-05-09T15:36:42;26.80;97.00